METAR Data
IDs: Format: Raw Decoded Include TAF

Data at: 1422 UTC 10 Aug 2022

KELP 101351Z 20005KT 10SM SCT100 BKN180 24/15 A3021 RMK AO2 SLP156 T02440150

KELP 101132Z 1012/1112 08007KT P6SM SCT150 SCT250
  FM102200 11010G18KT P6SM VCTS SCT080CB BKN150
  FM110200 08008KT P6SM SCT080 BKN200